Station info - map view · info · telemetry · weather · raw · status · beacons · messages · bulletins · browse · moving · my account
Callsign, ship name or locator: Clear       
It is possible to search using wildcards (*?) after a prefix. Example: OH*
APRS station K2MCT-8 - show graphs
Map loading...
Comment: k2mct.qsl@gmail.com
Mic-E message: En route
Location: 39°37.75' N 84°11.86' W - locator EM79VP61GA - show map - static map
4.2 miles North bearing 357° from Five Points, Warren County, Ohio, United States [?]
5.6 miles North bearing 20° from Springboro, Warren County, Ohio, United States
35.1 miles Northeast bearing 23° from Cincinnati, Hamilton County, Ohio, United States
67.6 miles West bearing 251° from Columbus, Franklin County, Ohio, United States
Last position: 2018-05-18 00:01:10 EDT (8d 12h ago)
2018-05-18 00:01:10 EDT local time at Five Points, United States [?]
Altitude: 915 ft
Course:
Device: Kenwood: TM-D710 (rig)
Last path: K2MCT-8>SY3W7U via W8BLV,WIDE1,qAR,KD9APX-10 (good)
Positions stored: 11333
Other SSIDs: K2MCT-3 K2MCT-9
Stations near current position of K2MCT-8 - show more
callsign distance last heard - EDT      callsign distance last heard - EDT
KC4CLB300.0 yards 298°2018-05-19 18:16:37 KC3DVR-5361.1 yards 240°2018-05-17 00:03:16
N8HGL-70.9 miles 294°2018-05-18 07:54:05 N44VF1.0 miles 218°2018-05-26 12:00:16
WE8J-71.4 miles 282°2018-05-26 11:59:18 N1ADM-i1.4 miles 278°2018-05-17 07:43:46
N3KCR-71.6 miles 289°2018-05-17 22:26:33 EW67671.8 miles 215°2018-05-26 12:00:28
W8ACT2.2 miles 22°2018-05-23 15:12:52 KE8BUO B2.3 miles 96°2018-05-26 11:57:14
KE8BUO-B2.3 miles 96°2018-05-26 11:57:24 KE8BUO2.3 miles 96°2018-05-26 11:39:17
KE8BUO-N2.3 miles 96°2018-05-26 11:54:07 KB8KOJ2.3 miles 96°2018-05-16 19:53:31
K8PLW2.4 miles 287°2018-05-17 23:40:57 K9EAA2.6 miles 224°2018-05-19 17:26:08
N8CNZ3.0 miles 320°2018-05-25 14:20:59 AB8YS B3.3 miles 123°2018-05-12 19:15:01
AB8YS-B3.3 miles 123°2018-05-12 19:15:11 AB8YS C3.3 miles 123°2018-05-26 11:56:29
Stations which heard K2MCT-8 directly on radio –
callsign pkts first heard - EDT last heard longest (tx => rx) longest at - EDT
K8SCH-10 15 2018-05-17 22:35:41 2018-05-17 23:02:09 EM78QV > EM79RA 8.7 miles 24° 2018-05-17 22:35:41
KA0AZS 2 2018-05-17 23:52:26 2018-05-17 23:54:02 EM79VP > EM79VQ 4.2 miles 346° 2018-05-17 23:54:02
W8BLV 23 2018-05-17 22:48:44 2018-05-17 23:59:18 EM79RB > EM79TM 34.4 miles 20° 2018-05-17 22:48:44
WC8EMA 29 2018-05-17 22:44:48 2018-05-17 23:59:20 EM79QA > EM79WL 38.1 miles 39° 2018-05-17 22:44:48
KI6SZ-2 10 2018-05-17 22:46:49 2018-05-17 23:59:19 EM79RB > EM79WT 59.8 miles 26° 2018-05-17 22:46:49
W8MRG-3 7 2018-05-17 22:49:46 2018-05-17 23:28:19 EM79SH > EM79SD 12.4 miles 189° 2018-05-17 23:28:19
W8VFR-1 5 2018-05-17 23:30:20 2018-05-17 23:48:04 EM79TI > EM79PO 23.4 miles 321° 2018-05-17 23:30:20
W8VFR-9 9 2018-05-17 22:50:15 2018-05-17 23:46:56 EM79RB > EM79QR 46.8 miles 358° 2018-05-17 22:50:15
W8VFR-5 15 2018-05-17 23:24:38 2018-05-17 23:49:34 EM79VO > EM79OM 29.1 miles 256° 2018-05-17 23:49:34
W8VFR-10 1 2018-05-17 23:34:31 2018-05-17 23:34:31 EM79TJ > EM79PS 32.8 miles 322° 2018-05-17 23:34:31
W8VFR-3 12 2018-05-17 23:34:29 2018-05-17 23:57:59 EM79TJ > EM79TP 16.0 miles 1° 2018-05-17 23:34:29
W8VFR-4 12 2018-05-17 23:39:48 2018-05-17 23:59:18 EM79UL > EM79TR 18.3 miles 349° 2018-05-17 23:39:48
N9CVA-10 15 2018-05-17 21:22:28 2018-05-17 21:48:10 EM78HJ > EM78BI 26.5 miles 263° 2018-05-17 21:48:10
W8VFR-11 1 2018-05-17 22:37:03 2018-05-17 22:37:03 EM78QW > EM79NO 48.5 miles 343° 2018-05-17 22:37:03
KD8LXB-10 1 2018-05-17 23:31:51 2018-05-17 23:31:51 EM79TI > EM79QR 29.2 miles 337° 2018-05-17 23:31:51
KK4ZDZ-10 6 2018-05-17 21:56:05 2018-05-17 22:56:06 EM78EG > EM78EC 11.8 miles 188° 2018-05-17 22:56:06
KC8HQX-3 15 2018-05-17 22:45:47 2018-05-17 23:20:59 EM79SF > EM79RC 9.9 miles 217° 2018-05-17 23:20:59
KF4ERV-10 10 2018-05-17 21:21:34 2018-05-17 22:56:51 EM78EG > EM78DF 5.5 miles 236° 2018-05-17 22:56:51
WC8VOA 7 2018-05-17 23:25:09 2018-05-17 23:35:31 EM79SG > EM79TI 7.2 miles 38° 2018-05-17 23:25:09
KE0JMK-2 1 2018-05-17 23:52:58 2018-05-17 23:52:58 EM79VP > EM79WR 6.6 miles 29° 2018-05-17 23:52:58
K4KPN-15 7 2018-05-17 22:11:20 2018-05-17 22:35:02 EM78LP > EM78RP 24.2 miles 91° 2018-05-17 22:11:20

Only position packets which were originated by the station are shown here. The range statistics show some extra long hops, because some digipeaters do not correctly add themselves to the digipeater path. Please check the raw packets.
About this site
This page shows real-time information collected from the Automatic Position Reporting System Internet network (APRS-IS). APRS is used by amateur (ham) radio operators to transmit real-time position information, weather data, telemetry and messages over the radio. A vehicle equipped with a GPS receiver, a VHF transmitter or HF transceiver and a small computer device called a tracker transmits it's location, speed and course in a small data packet, which is then received by a nearby iGate receiving site which forwards the packet on the Internet. Systems connected to the Internet can send information on the APRS-IS without a radio transmitter, or collect and display information transmitted anywhere in the world.
FAQ · Blog · Discussion group · Linking to aprs.fi · AIS sites · Service status · Database statistics · Advertising on aprs.fi · Technical details · API · Change log · Planned changes · Credits and thanks · Terms Of Service · iPhone/iPad APRS